Terminal Aerodrome Forecast
Issued by NWS North Platte, NE

Home | Current Version | Previous Version | Text Only | Print | Product List | Glossary Off
Versions: 1 2 3 4 5 6 7 8 9 10 11 12 13 14 15 16 17 18 19

000
FTUS43 KLBF 221126
TAFVTN
TAF
KVTN 221126Z 2212/2312 36008KT P6SM OVC007
     FM221500 02009KT P6SM OVC012
     FM221800 03007KT P6SM SCT012 OVC025
     FM222100 05009KT P6SM SCT025 BKN050
     FM230200 06011KT P6SM OVC025
     FM230500 07012KT P6SM OVC015
     FM230700 09012KT P6SM OVC005
      TEMPO 2308/2312 3SM BR=

USA.gov is the U.S. government's official web portal to all federal, state and local government web resources and services.